Airfield :
LOGIN :

Register | Disclaimer

   EN    FR    IT 

 










Legend :    VFR   Marginal VFR   IFR   Intensive IFR   Very Intensive IFR
Visi :
Ceiling :
>= 8 km
>= 3000ft
5 to 8 km
1000 to 3000 ft
1500m to 5 km
500 to 1000 ft
800 to 1500m
200 to 500 ft
< 800m
< 200 ft
Symbols :   Thunderstorms  Fog  Heavy snow  Heavy precipitations  Wind > 20 kt
SIGMETs :     Misc.  Thunderstorms  Icing  Turbulence  Mountain Waves  Volcanic Ashes







- Airport Elevation : 1302 ft
- IATA code : GNB
- Download approach charts


LFLS - Grenoble / St. Geoirs

CURRENT METAR :
  • 170200Z AUTO 10002KT 4300 BR BKN007 OVC028 05/04 Q1017

EXPIRED METARs :
  • 170130Z AUTO 09002KT 4400 BR OVC007 05/04 Q1016
  • 170100Z AUTO 07002KT 4300 BR OVC007 05/04 Q1016
  • 170030Z AUTO VRB01KT 3000 BR BKN006 BKN010 OVC050 05/04 Q1016
  • 170000Z AUTO 13002KT 2900 -RA BR SCT005 BKN011 BKN037 05/04 Q1016
  • 162330Z AUTO VRB02KT 4500 BR FEW010 BKN039 OVC046 05/04 Q1015

TAF TAF LFLS
Valid from the 16 at 15:00 until the 17 at 15:00 UTC


161400Z 1615/1715 09005KT 8000 BKN017
TEMPO 1615/1709 2000 -RA BR BKN008 BKN013
PROB30
TEMPO 1700/1709 1000 -RASN OVC003
ATIS : +33 4 76 65 55 89
No reported NOTAMs for that airfield.
2 SIGMETs reported for the Marseille FIR (LFMM) :
 
Severe turbulence
LFMM SIGMET 4 VALID 170000/170400 LFPW
LFMM MARSEILLE FIR/UIR SEV TURB FCST S OF N4230 AND E OF E00830 SFC/FL100 STNR NC=
Severe turbulence
LFMM SIGMET 3 VALID 170000/170400 LFPW
LFMM MARSEILLE FIR/UIR SEV TURB FCST WI N4030 E00430 - N4200 E00430 - N4215 E00230 - N4330 E00245 - N4430 E00415 - N4130 E00615 - N4030 E00430 SFC/FL060 STNR NC=



MET'MAP, your aeronautical weather chart ! - Copyright ORBIFLY December 2007 - Disclaimer

ORBIFLY MET'MAP TEAM :

Programming & Development : Alexandra Zaïnal
Concept & Development : Baudouin d'Aumeries
Co-Development & Prog : Marc-Olivier Méhu
Technical & hardware support : Manuel Goepfert

Contact : metmap@orbifly.com




SOURCES & CREDITS :

   NOAA